SWR52Y EDLW-LSZH
Flight info
| Callsign | SWR52Y |
|---|---|
| Flight time | 1h 3m |
| Altitude | 31000 |
| Route | GMH8Q GMH Q603 TESGA L603 BOMBI T721 LAMGO T721 RILAX |
| Aircraft | B463/M-SDFGIRWY/LB1 |
Departure
| Time | 2026-05-05 18:13 |
|---|---|
| Airport | Dortmund Airport (EDLW) |
Arrival
| Time | 2026-05-05 19:17 |
|---|---|
| Airport | Zürich Airport (LSZH) |
| Time | Latitude | Longitude | Altitude | Speed | Heading |
|---|---|---|---|---|---|
| 2026-05-05 17:54 | 51.51602 | 7.61363 | 432 ft | 0 kts | 149° |
| 2026-05-05 18:03 | 51.51605 | 7.61360 | 432 ft | 1 kts | 149° |
| 2026-05-05 18:04 | 51.51611 | 7.61355 | 431 ft | 1 kts | 149° |
| 2026-05-05 18:04 | 51.51612 | 7.61353 | 431 ft | 0 kts | 149° |
| 2026-05-05 18:04 | 51.51630 | 7.61337 | 421 ft | 2 kts | 180° |
| 2026-05-05 18:05 | 51.51639 | 7.61346 | 425 ft | 2 kts | 238° |
| 2026-05-05 18:05 | 51.51642 | 7.61353 | 429 ft | 0 kts | 238° |
| 2026-05-05 18:08 | 51.51633 | 7.61330 | 421 ft | 5 kts | 238° |
| 2026-05-05 18:09 | 51.51604 | 7.61252 | 420 ft | 11 kts | 244° |
| 2026-05-05 18:09 | 51.51581 | 7.61139 | 421 ft | 10 kts | 296° |
| 2026-05-05 18:09 | 51.51575 | 7.61006 | 426 ft | 14 kts | 246° |
| 2026-05-05 18:09 | 51.51530 | 7.60884 | 423 ft | 12 kts | 242° |
| 2026-05-05 18:10 | 51.51487 | 7.60757 | 426 ft | 12 kts | 242° |
| 2026-05-05 18:10 | 51.51448 | 7.60640 | 424 ft | 11 kts | 241° |
| 2026-05-05 18:10 | 51.51426 | 7.60580 | 425 ft | 0 kts | 239° |
| 2026-05-05 18:12 | 51.51396 | 7.60501 | 427 ft | 17 kts | 239° |
| 2026-05-05 18:12 | 51.51374 | 7.60299 | 426 ft | 19 kts | 317° |
| 2026-05-05 18:12 | 51.51475 | 7.60232 | 417 ft | 11 kts | 24° |
| 2026-05-05 18:12 | 51.51514 | 7.60320 | 417 ft | 12 kts | 61° |
| 2026-05-05 18:13 | 51.51607 | 7.60581 | 415 ft | 49 kts | 61° |
| 2026-05-05 18:13 | 51.51902 | 7.61410 | 417 ft | 119 kts | 59° |
| 2026-05-05 18:13 | 51.52361 | 7.62695 | 784 ft | 136 kts | 57° |
| 2026-05-05 18:13 | 51.52839 | 7.64100 | 1358 ft | 151 kts | 58° |
| 2026-05-05 18:14 | 51.53395 | 7.65512 | 2177 ft | 141 kts | 55° |
| 2026-05-05 18:14 | 51.53964 | 7.66706 | 2994 ft | 137 kts | 51° |
| 2026-05-05 18:14 | 51.54690 | 7.67958 | 3291 ft | 168 kts | 45° |
| 2026-05-05 18:14 | 51.55613 | 7.69283 | 3894 ft | 185 kts | 47° |
| 2026-05-05 18:15 | 51.56188 | 7.71198 | 4533 ft | 202 kts | 88° |
| 2026-05-05 18:15 | 51.55822 | 7.73391 | 5250 ft | 216 kts | 125° |
| 2026-05-05 18:15 | 51.54839 | 7.75308 | 6076 ft | 227 kts | 131° |
| 2026-05-05 18:15 | 51.53759 | 7.77271 | 6813 ft | 241 kts | 133° |
| 2026-05-05 18:16 | 51.52384 | 7.78905 | 7488 ft | 256 kts | 162° |
| 2026-05-05 18:16 | 51.50584 | 7.79017 | 8215 ft | 268 kts | 193° |
| 2026-05-05 18:16 | 51.48771 | 7.78122 | 8993 ft | 279 kts | 198° |
| 2026-05-05 18:16 | 51.46924 | 7.77064 | 9867 ft | 285 kts | 200° |
| 2026-05-05 18:17 | 51.45067 | 7.75904 | 10737 ft | 287 kts | 201° |
| 2026-05-05 18:17 | 51.43167 | 7.74910 | 11546 ft | 288 kts | 185° |
| 2026-05-05 18:17 | 51.41213 | 7.75308 | 12233 ft | 292 kts | 161° |
| 2026-05-05 18:17 | 51.39285 | 7.76420 | 13008 ft | 295 kts | 160° |
| 2026-05-05 18:18 | 51.37336 | 7.77540 | 13725 ft | 299 kts | 160° |
| 2026-05-05 18:18 | 51.35379 | 7.78723 | 14379 ft | 300 kts | 159° |
| 2026-05-05 18:18 | 51.33431 | 7.79924 | 15014 ft | 302 kts | 159° |
| 2026-05-05 18:18 | 51.31420 | 7.81145 | 15296 ft | 316 kts | 159° |
| 2026-05-05 18:19 | 51.29301 | 7.82395 | 15498 ft | 330 kts | 160° |
| 2026-05-05 18:19 | 51.27110 | 7.83674 | 15661 ft | 342 kts | 160° |
| 2026-05-05 18:19 | 51.24840 | 7.84946 | 15709 ft | 355 kts | 161° |
| 2026-05-05 18:19 | 51.22469 | 7.86259 | 15980 ft | 362 kts | 161° |
| 2026-05-05 18:20 | 51.20082 | 7.87571 | 16390 ft | 364 kts | 161° |
| 2026-05-05 18:20 | 51.17693 | 7.88976 | 16786 ft | 366 kts | 156° |
| 2026-05-05 18:20 | 51.15450 | 7.90831 | 17184 ft | 368 kts | 150° |
| 2026-05-05 18:20 | 51.13254 | 7.92962 | 17608 ft | 370 kts | 148° |
| 2026-05-05 18:21 | 51.11081 | 7.95174 | 17998 ft | 371 kts | 147° |
| 2026-05-05 18:21 | 51.08912 | 7.97454 | 18345 ft | 373 kts | 147° |
| 2026-05-05 18:21 | 51.06769 | 7.99706 | 18679 ft | 374 kts | 147° |
| 2026-05-05 18:21 | 51.04570 | 8.01976 | 18972 ft | 377 kts | 149° |
| 2026-05-05 18:22 | 51.02152 | 8.03616 | 19274 ft | 378 kts | 166° |
| 2026-05-05 18:22 | 50.99575 | 8.04518 | 19584 ft | 380 kts | 168° |
| 2026-05-05 18:22 | 50.96974 | 8.05361 | 19921 ft | 381 kts | 168° |
| 2026-05-05 18:22 | 50.94400 | 8.06188 | 20241 ft | 382 kts | 168° |
| 2026-05-05 18:23 | 50.91786 | 8.07047 | 20547 ft | 384 kts | 167° |
| 2026-05-05 18:23 | 50.89169 | 8.07935 | 20860 ft | 385 kts | 167° |
| 2026-05-05 18:23 | 50.86538 | 8.08875 | 21157 ft | 387 kts | 167° |
| 2026-05-05 18:23 | 50.83903 | 8.09828 | 21467 ft | 388 kts | 166° |
| 2026-05-05 18:24 | 50.81292 | 8.10782 | 21762 ft | 390 kts | 166° |
| 2026-05-05 18:24 | 50.78637 | 8.11753 | 22028 ft | 391 kts | 166° |
| 2026-05-05 18:24 | 50.75978 | 8.12729 | 22315 ft | 393 kts | 166° |
| 2026-05-05 18:24 | 50.73302 | 8.13708 | 22594 ft | 394 kts | 166° |
| 2026-05-05 18:25 | 50.70612 | 8.14693 | 22839 ft | 396 kts | 166° |
| 2026-05-05 18:25 | 50.68837 | 8.15342 | 23018 ft | 397 kts | 166° |
| 2026-05-05 18:25 | 50.65265 | 8.16647 | 23367 ft | 399 kts | 166° |
| 2026-05-05 18:25 | 50.62553 | 8.17634 | 23593 ft | 400 kts | 166° |
| 2026-05-05 18:26 | 50.59817 | 8.18602 | 23835 ft | 400 kts | 167° |
| 2026-05-05 18:26 | 50.57089 | 8.19578 | 24046 ft | 402 kts | 166° |
| 2026-05-05 18:26 | 50.54387 | 8.20542 | 24248 ft | 403 kts | 166° |
| 2026-05-05 18:26 | 50.51644 | 8.21516 | 24458 ft | 404 kts | 166° |
| 2026-05-05 18:27 | 50.48890 | 8.22494 | 24713 ft | 404 kts | 166° |
| 2026-05-05 18:27 | 50.46147 | 8.23465 | 24991 ft | 403 kts | 166° |
| 2026-05-05 18:27 | 50.43450 | 8.24418 | 25259 ft | 402 kts | 166° |
| 2026-05-05 18:27 | 50.40724 | 8.25378 | 25518 ft | 401 kts | 166° |
| 2026-05-05 18:28 | 50.35291 | 8.27331 | 26067 ft | 399 kts | 166° |
| 2026-05-05 18:28 | 50.32572 | 8.28304 | 26272 ft | 400 kts | 166° |
| 2026-05-05 18:28 | 50.29863 | 8.29264 | 26524 ft | 399 kts | 166° |
| 2026-05-05 18:29 | 50.27150 | 8.30219 | 26771 ft | 398 kts | 166° |
| 2026-05-05 18:29 | 50.24449 | 8.31175 | 26994 ft | 398 kts | 166° |
| 2026-05-05 18:29 | 50.21752 | 8.32157 | 27246 ft | 397 kts | 166° |
| 2026-05-05 18:29 | 50.19092 | 8.33099 | 27491 ft | 396 kts | 166° |
| 2026-05-05 18:30 | 50.16409 | 8.34037 | 27744 ft | 395 kts | 166° |
| 2026-05-05 18:30 | 50.13735 | 8.35001 | 27992 ft | 394 kts | 166° |
| 2026-05-05 18:30 | 50.11059 | 8.35950 | 28225 ft | 394 kts | 166° |
| 2026-05-05 18:30 | 50.08384 | 8.36871 | 28424 ft | 394 kts | 166° |
| 2026-05-05 18:31 | 50.05706 | 8.37813 | 28647 ft | 393 kts | 166° |
| 2026-05-05 18:31 | 50.03038 | 8.38771 | 28861 ft | 392 kts | 166° |
| 2026-05-05 18:31 | 49.97684 | 8.40638 | 28920 ft | 400 kts | 166° |
| 2026-05-05 18:32 | 49.92181 | 8.42550 | 28932 ft | 408 kts | 166° |
| 2026-05-05 18:32 | 49.86625 | 8.44509 | 29125 ft | 410 kts | 166° |
| 2026-05-05 18:33 | 49.83842 | 8.45461 | 29283 ft | 410 kts | 166° |
| 2026-05-05 18:33 | 49.81086 | 8.46404 | 29443 ft | 409 kts | 166° |
| 2026-05-05 18:33 | 49.78662 | 8.47265 | 29585 ft | 409 kts | 166° |
| 2026-05-05 18:33 | 49.75880 | 8.48240 | 29745 ft | 409 kts | 166° |
| 2026-05-05 18:34 | 49.73098 | 8.49191 | 29893 ft | 408 kts | 166° |
| 2026-05-05 18:34 | 49.70326 | 8.50171 | 30034 ft | 408 kts | 166° |
| 2026-05-05 18:34 | 49.67580 | 8.51111 | 30169 ft | 407 kts | 166° |
| 2026-05-05 18:34 | 49.64812 | 8.52061 | 30303 ft | 407 kts | 166° |
| 2026-05-05 18:35 | 49.62047 | 8.53021 | 30416 ft | 407 kts | 166° |
| 2026-05-05 18:35 | 49.59272 | 8.53965 | 30543 ft | 406 kts | 166° |
| 2026-05-05 18:35 | 49.56506 | 8.54901 | 30670 ft | 406 kts | 166° |
| 2026-05-05 18:35 | 49.53790 | 8.55831 | 30779 ft | 402 kts | 166° |
| 2026-05-05 18:36 | 49.48369 | 8.57704 | 30823 ft | 397 kts | 166° |
| 2026-05-05 18:36 | 49.42988 | 8.59544 | 30825 ft | 398 kts | 166° |
| 2026-05-05 18:37 | 49.37555 | 8.61430 | 30835 ft | 401 kts | 166° |
| 2026-05-05 18:37 | 49.32092 | 8.63317 | 30832 ft | 401 kts | 166° |
| 2026-05-05 18:38 | 49.26660 | 8.65191 | 30830 ft | 401 kts | 167° |
| 2026-05-05 18:38 | 49.22021 | 8.65761 | 30836 ft | 403 kts | 180° |
| 2026-05-05 18:39 | 49.15498 | 8.65174 | 30834 ft | 404 kts | 183° |
| 2026-05-05 18:39 | 49.10821 | 8.64709 | 30300 ft | 410 kts | 182° |
| 2026-05-05 18:40 | 49.07940 | 8.64454 | 29610 ft | 415 kts | 182° |
| 2026-05-05 18:40 | 49.05049 | 8.64249 | 28850 ft | 415 kts | 182° |
| 2026-05-05 18:40 | 49.02161 | 8.64059 | 28115 ft | 416 kts | 182° |
| 2026-05-05 18:40 | 48.99247 | 8.63843 | 27395 ft | 418 kts | 182° |
| 2026-05-05 18:41 | 48.96368 | 8.63632 | 26710 ft | 419 kts | 182° |
| 2026-05-05 18:41 | 48.93457 | 8.63423 | 26034 ft | 420 kts | 182° |
| 2026-05-05 18:41 | 48.90529 | 8.63216 | 25368 ft | 421 kts | 182° |
| 2026-05-05 18:41 | 48.87602 | 8.62941 | 24564 ft | 420 kts | 184° |
| 2026-05-05 18:42 | 48.84679 | 8.62570 | 23544 ft | 422 kts | 185° |
| 2026-05-05 18:42 | 48.81783 | 8.62172 | 22576 ft | 399 kts | 185° |
| 2026-05-05 18:42 | 48.79048 | 8.61795 | 21289 ft | 390 kts | 186° |
| 2026-05-05 18:42 | 48.76352 | 8.61434 | 20793 ft | 381 kts | 185° |
| 2026-05-05 18:43 | 48.73782 | 8.61099 | 20324 ft | 372 kts | 185° |
| 2026-05-05 18:43 | 48.71207 | 8.60773 | 19675 ft | 368 kts | 185° |
| 2026-05-05 18:43 | 48.68656 | 8.60463 | 18989 ft | 365 kts | 186° |
| 2026-05-05 18:43 | 48.66135 | 8.60173 | 18334 ft | 361 kts | 186° |
| 2026-05-05 18:44 | 48.63660 | 8.59875 | 17998 ft | 360 kts | 186° |
| 2026-05-05 18:44 | 48.61162 | 8.59558 | 17882 ft | 359 kts | 186° |
| 2026-05-05 18:44 | 48.58676 | 8.59244 | 17845 ft | 358 kts | 186° |
| 2026-05-05 18:44 | 48.56191 | 8.58925 | 17848 ft | 358 kts | 186° |
| 2026-05-05 18:45 | 48.53700 | 8.58604 | 17845 ft | 358 kts | 186° |
| 2026-05-05 18:45 | 48.51243 | 8.58302 | 17842 ft | 358 kts | 186° |
| 2026-05-05 18:45 | 48.48754 | 8.58002 | 17844 ft | 358 kts | 186° |
| 2026-05-05 18:45 | 48.46260 | 8.57697 | 17846 ft | 359 kts | 186° |
| 2026-05-05 18:46 | 48.43750 | 8.57379 | 17849 ft | 366 kts | 186° |
| 2026-05-05 18:46 | 48.41172 | 8.57085 | 17856 ft | 374 kts | 186° |
| 2026-05-05 18:46 | 48.38567 | 8.56775 | 17861 ft | 374 kts | 186° |
| 2026-05-05 18:46 | 48.35979 | 8.56447 | 17854 ft | 374 kts | 186° |
| 2026-05-05 18:47 | 48.33418 | 8.56122 | 17842 ft | 374 kts | 186° |
| 2026-05-05 18:47 | 48.30824 | 8.55827 | 17847 ft | 373 kts | 186° |
| 2026-05-05 18:47 | 48.28224 | 8.55520 | 17748 ft | 375 kts | 186° |
| 2026-05-05 18:47 | 48.25623 | 8.55192 | 17121 ft | 372 kts | 186° |
| 2026-05-05 18:48 | 48.23054 | 8.54873 | 16522 ft | 369 kts | 186° |
| 2026-05-05 18:48 | 48.20500 | 8.54562 | 15927 ft | 365 kts | 186° |
| 2026-05-05 18:48 | 48.17979 | 8.54265 | 15356 ft | 362 kts | 186° |
| 2026-05-05 18:48 | 48.15471 | 8.53983 | 14797 ft | 359 kts | 187° |
| 2026-05-05 18:49 | 48.13030 | 8.53692 | 14253 ft | 356 kts | 187° |
| 2026-05-05 18:49 | 48.10563 | 8.53387 | 13997 ft | 354 kts | 187° |
| 2026-05-05 18:49 | 48.08112 | 8.53086 | 13902 ft | 352 kts | 187° |
| 2026-05-05 18:49 | 48.05657 | 8.52788 | 13871 ft | 352 kts | 187° |
| 2026-05-05 18:50 | 48.03215 | 8.52496 | 13868 ft | 352 kts | 187° |
| 2026-05-05 18:50 | 48.00795 | 8.52209 | 13868 ft | 352 kts | 187° |
| 2026-05-05 18:50 | 47.98339 | 8.51921 | 13871 ft | 352 kts | 187° |
| 2026-05-05 18:50 | 47.95894 | 8.51694 | 13872 ft | 353 kts | 181° |
| 2026-05-05 18:51 | 47.93589 | 8.52540 | 13868 ft | 347 kts | 156° |
| 2026-05-05 18:51 | 47.91559 | 8.54561 | 13879 ft | 353 kts | 147° |
| 2026-05-05 18:51 | 47.89603 | 8.56820 | 13877 ft | 354 kts | 145° |
| 2026-05-05 18:51 | 47.87722 | 8.59145 | 13884 ft | 355 kts | 143° |
| 2026-05-05 18:52 | 47.85834 | 8.61552 | 13726 ft | 357 kts | 143° |
| 2026-05-05 18:52 | 47.83949 | 8.63948 | 13489 ft | 355 kts | 143° |
| 2026-05-05 18:52 | 47.82064 | 8.66313 | 13248 ft | 354 kts | 144° |
| 2026-05-05 18:52 | 47.80182 | 8.68653 | 12862 ft | 346 kts | 144° |
| 2026-05-05 18:53 | 47.78376 | 8.70862 | 12463 ft | 335 kts | 145° |
| 2026-05-05 18:53 | 47.76621 | 8.73004 | 12074 ft | 326 kts | 145° |
| 2026-05-05 18:53 | 47.74878 | 8.75116 | 11678 ft | 320 kts | 146° |
| 2026-05-05 18:53 | 47.73371 | 8.76912 | 11354 ft | 317 kts | 146° |
| 2026-05-05 18:54 | 47.71668 | 8.78941 | 10987 ft | 313 kts | 146° |
| 2026-05-05 18:54 | 47.69975 | 8.80956 | 10610 ft | 309 kts | 146° |
| 2026-05-05 18:54 | 47.68320 | 8.82928 | 10246 ft | 306 kts | 146° |
| 2026-05-05 18:54 | 47.66768 | 8.84787 | 10027 ft | 305 kts | 146° |
| 2026-05-05 18:55 | 47.65115 | 8.86753 | 9930 ft | 304 kts | 145° |
| 2026-05-05 18:55 | 47.63483 | 8.88732 | 9896 ft | 302 kts | 144° |
| 2026-05-05 18:55 | 47.62009 | 8.90954 | 9893 ft | 308 kts | 128° |
| 2026-05-05 18:55 | 47.60909 | 8.93665 | 9890 ft | 304 kts | 122° |
| 2026-05-05 18:56 | 47.59931 | 8.96342 | 9887 ft | 288 kts | 121° |
| 2026-05-05 18:56 | 47.59047 | 8.98919 | 9870 ft | 278 kts | 116° |
| 2026-05-05 18:56 | 47.58752 | 9.01679 | 9865 ft | 274 kts | 83° |
| 2026-05-05 18:56 | 47.59132 | 9.03435 | 9870 ft | 269 kts | 60° |
| 2026-05-05 18:57 | 47.60503 | 9.05485 | 9882 ft | 261 kts | 24° |
| 2026-05-05 18:57 | 47.62221 | 9.06122 | 9909 ft | 257 kts | 1° |
| 2026-05-05 18:57 | 47.63853 | 9.06746 | 9907 ft | 263 kts | 31° |
| 2026-05-05 18:57 | 47.65070 | 9.08701 | 9915 ft | 264 kts | 66° |
| 2026-05-05 18:58 | 47.65417 | 9.11364 | 9914 ft | 266 kts | 100° |
| 2026-05-05 18:58 | 47.64814 | 9.13872 | 9906 ft | 254 kts | 133° |
| 2026-05-05 18:58 | 47.63510 | 9.15399 | 9914 ft | 237 kts | 166° |
| 2026-05-05 18:58 | 47.61922 | 9.15515 | 9926 ft | 228 kts | 201° |
| 2026-05-05 18:59 | 47.60522 | 9.14453 | 9937 ft | 226 kts | 214° |
| 2026-05-05 18:59 | 47.59360 | 9.12919 | 9927 ft | 224 kts | 233° |
| 2026-05-05 18:59 | 47.58483 | 9.11018 | 9910 ft | 225 kts | 239° |
| 2026-05-05 18:59 | 47.57827 | 9.08918 | 9919 ft | 226 kts | 253° |
| 2026-05-05 19:00 | 47.57516 | 9.06631 | 9903 ft | 228 kts | 259° |
| 2026-05-05 19:00 | 47.57390 | 9.04298 | 9898 ft | 227 kts | 265° |
| 2026-05-05 19:00 | 47.57661 | 9.02059 | 9886 ft | 234 kts | 296° |
| 2026-05-05 19:00 | 47.58856 | 9.00411 | 9912 ft | 248 kts | 332° |
| 2026-05-05 19:01 | 47.60537 | 9.00003 | 9929 ft | 258 kts | 1° |
| 2026-05-05 19:01 | 47.62216 | 9.00530 | 9922 ft | 262 kts | 20° |
| 2026-05-05 19:01 | 47.63826 | 9.01895 | 9918 ft | 264 kts | 38° |
| 2026-05-05 19:01 | 47.64990 | 9.03972 | 9916 ft | 264 kts | 68° |
| 2026-05-05 19:02 | 47.65318 | 9.06608 | 9918 ft | 260 kts | 95° |
| 2026-05-05 19:02 | 47.65161 | 9.09279 | 9904 ft | 259 kts | 101° |
| 2026-05-05 19:02 | 47.64944 | 9.11892 | 9888 ft | 258 kts | 99° |
| 2026-05-05 19:02 | 47.64742 | 9.14536 | 9871 ft | 258 kts | 100° |
| 2026-05-05 19:03 | 47.64525 | 9.17184 | 9875 ft | 259 kts | 101° |
| 2026-05-05 19:03 | 47.64287 | 9.19836 | 9871 ft | 258 kts | 101° |
| 2026-05-05 19:03 | 47.63773 | 9.22243 | 9875 ft | 249 kts | 128° |
| 2026-05-05 19:03 | 47.62541 | 9.23942 | 9883 ft | 240 kts | 162° |
| 2026-05-05 19:04 | 47.60952 | 9.24224 | 9893 ft | 230 kts | 195° |
| 2026-05-05 19:04 | 47.59595 | 9.23086 | 9535 ft | 235 kts | 230° |
| 2026-05-05 19:04 | 47.58947 | 9.20862 | 9182 ft | 243 kts | 264° |
| 2026-05-05 19:04 | 47.59278 | 9.18386 | 8833 ft | 251 kts | 289° |
| 2026-05-05 19:05 | 47.59991 | 9.15985 | 8470 ft | 256 kts | 291° |
| 2026-05-05 19:05 | 47.60746 | 9.13583 | 8126 ft | 259 kts | 292° |
| 2026-05-05 19:05 | 47.61528 | 9.11234 | 7975 ft | 255 kts | 293° |
| 2026-05-05 19:05 | 47.62322 | 9.08919 | 7910 ft | 248 kts | 293° |
| 2026-05-05 19:06 | 47.63014 | 9.06660 | 7883 ft | 236 kts | 281° |
| 2026-05-05 19:06 | 47.63296 | 9.04301 | 7887 ft | 232 kts | 275° |
| 2026-05-05 19:06 | 47.63520 | 9.01916 | 7889 ft | 233 kts | 275° |
| 2026-05-05 19:06 | 47.63713 | 8.99560 | 7885 ft | 232 kts | 270° |
| 2026-05-05 19:07 | 47.63370 | 8.97336 | 7791 ft | 231 kts | 236° |
| 2026-05-05 19:07 | 47.62342 | 8.95476 | 7562 ft | 233 kts | 231° |
| 2026-05-05 19:07 | 47.61296 | 8.93635 | 7347 ft | 234 kts | 226° |
| 2026-05-05 19:07 | 47.59864 | 8.92511 | 7146 ft | 240 kts | 190° |
| 2026-05-05 19:08 | 47.58626 | 8.92679 | 7073 ft | 243 kts | 168° |
| 2026-05-05 19:08 | 47.58282 | 8.92829 | 7051 ft | 242 kts | 167° |
| 2026-05-05 19:08 | 47.56673 | 8.93573 | 7004 ft | 239 kts | 167° |
| 2026-05-05 19:08 | 47.55102 | 8.94345 | 6993 ft | 240 kts | 165° |
| 2026-05-05 19:09 | 47.53526 | 8.95186 | 6800 ft | 243 kts | 164° |
| 2026-05-05 19:09 | 47.51948 | 8.96062 | 6601 ft | 246 kts | 164° |
| 2026-05-05 19:09 | 47.50304 | 8.96721 | 6380 ft | 242 kts | 180° |
| 2026-05-05 19:09 | 47.48626 | 8.96820 | 6060 ft | 246 kts | 182° |
| 2026-05-05 19:10 | 47.46928 | 8.96895 | 5727 ft | 234 kts | 182° |
| 2026-05-05 19:10 | 47.45460 | 8.96830 | 5516 ft | 193 kts | 201° |
| 2026-05-05 19:10 | 47.44568 | 8.95795 | 5327 ft | 175 kts | 243° |
| 2026-05-05 19:10 | 47.44097 | 8.94126 | 5140 ft | 176 kts | 250° |
| 2026-05-05 19:11 | 47.43573 | 8.92474 | 5040 ft | 180 kts | 244° |
| 2026-05-05 19:11 | 47.43245 | 8.90753 | 5001 ft | 177 kts | 272° |
| 2026-05-05 19:11 | 47.43325 | 8.88931 | 5017 ft | 178 kts | 272° |
| 2026-05-05 19:11 | 47.43458 | 8.87112 | 5012 ft | 179 kts | 276° |
| 2026-05-05 19:12 | 47.43631 | 8.85292 | 5015 ft | 179 kts | 277° |
| 2026-05-05 19:12 | 47.43800 | 8.83491 | 5003 ft | 179 kts | 276° |
| 2026-05-05 19:12 | 47.43949 | 8.81738 | 5000 ft | 178 kts | 275° |
| 2026-05-05 19:12 | 47.44067 | 8.79893 | 4776 ft | 184 kts | 273° |
| 2026-05-05 19:13 | 47.44175 | 8.78046 | 4456 ft | 175 kts | 274° |
| 2026-05-05 19:13 | 47.44295 | 8.76362 | 4252 ft | 157 kts | 275° |
| 2026-05-05 19:13 | 47.44409 | 8.74803 | 4002 ft | 151 kts | 273° |
| 2026-05-05 19:13 | 47.44492 | 8.73537 | 3828 ft | 152 kts | 273° |
| 2026-05-05 19:14 | 47.44599 | 8.71970 | 3613 ft | 154 kts | 273° |
| 2026-05-05 19:14 | 47.44710 | 8.70390 | 3412 ft | 155 kts | 273° |
| 2026-05-05 19:14 | 47.44824 | 8.68800 | 3160 ft | 155 kts | 273° |
| 2026-05-05 19:14 | 47.44936 | 8.67240 | 2935 ft | 149 kts | 273° |
| 2026-05-05 19:15 | 47.45040 | 8.65817 | 2740 ft | 138 kts | 273° |
| 2026-05-05 19:15 | 47.45137 | 8.64430 | 2538 ft | 134 kts | 274° |
| 2026-05-05 19:15 | 47.45235 | 8.63047 | 2308 ft | 135 kts | 274° |
| 2026-05-05 19:15 | 47.45334 | 8.61732 | 2119 ft | 128 kts | 274° |
| 2026-05-05 19:16 | 47.45418 | 8.60467 | 1899 ft | 123 kts | 272° |
| 2026-05-05 19:16 | 47.45485 | 8.59298 | 1759 ft | 122 kts | 277° |
| 2026-05-05 19:16 | 47.45583 | 8.58062 | 1603 ft | 126 kts | 275° |
| 2026-05-05 19:16 | 47.45679 | 8.56763 | 1430 ft | 125 kts | 272° |
| 2026-05-05 19:17 | 47.45775 | 8.55587 | 1399 ft | 104 kts | 271° |
| 2026-05-05 19:17 | 47.45803 | 8.54873 | 1399 ft | 34 kts | 245° |
| 2026-05-05 19:17 | 47.45690 | 8.54891 | 1402 ft | 15 kts | 156° |
| 2026-05-05 19:17 | 47.45601 | 8.54950 | 1397 ft | 14 kts | 156° |
| 2026-05-05 19:18 | 47.45507 | 8.55018 | 1402 ft | 16 kts | 147° |
| 2026-05-05 19:18 | 47.45438 | 8.55136 | 1406 ft | 14 kts | 124° |
| 2026-05-05 19:18 | 47.45391 | 8.55257 | 1402 ft | 12 kts | 119° |
| 2026-05-05 19:18 | 47.45382 | 8.55280 | 1397 ft | 0 kts | 119° |
| 2026-05-05 19:19 | 47.45376 | 8.55300 | 1397 ft | 10 kts | 108° |
| 2026-05-05 19:19 | 47.45429 | 8.55386 | 1402 ft | 13 kts | 27° |
| 2026-05-05 19:19 | 47.45504 | 8.55441 | 1402 ft | 11 kts | 22° |
| 2026-05-05 19:19 | 47.45568 | 8.55459 | 1397 ft | 9 kts | 5° |
| 2026-05-05 19:20 | 47.45604 | 8.55464 | 1397 ft | 0 kts | 6° |